< < Back
Terminal Aerodrome Forecast


Current Version              Previous Versions:   1  2  3  4  5  6  7  8  9  

Terminal Aerodrome Forecast

409
FTUS44 KMOB 292339
TAFPNS
TAF
KPNS 292339Z 3000/3024 VRB04KT P6SM -RA VCTS SCT040CB SCT070 BKN200
     FM300300 VRB03KT P6SM VCSH SCT040 BKN200
     FM301700 17009KT P6SM VCTS SCT040CB BKN200=



Latest METAR

589
SAUS70 KWBC 300300 RRQ
MTRPNS
METAR KPNS 300253Z 00000KT 10SM CLR 26/23 A2995 RMK AO2 SLP144 60000
T02560233 53004


USA.gov is the U.S. government's official web portal to all federal, state and local government web resources and services.